createdAt,value
2019-03-10T00:03:12.246Z,0.95
2019-03-10T00:08:15.765Z,0.73
2019-03-10T00:13:19.311Z,0.90
2019-03-10T00:18:23.431Z,0.70
2019-03-10T00:23:26.975Z,1.05
2019-03-10T00:28:30.534Z,0.80
2019-03-10T00:33:34.399Z,0.93
2019-03-10T00:38:46.974Z,0.80
2019-03-10T00:44:02.483Z,0.90
2019-03-10T00:49:20.756Z,0.85
2019-03-10T00:54:24.311Z,1.07
2019-03-10T00:59:27.901Z,1.00
2019-03-10T01:04:31.499Z,0.82
2019-03-10T01:09:35.010Z,1.00
2019-03-10T01:14:38.569Z,0.90
2019-03-10T01:19:42.107Z,0.70
2019-03-10T01:24:45.699Z,0.80
2019-03-10T01:29:49.249Z,0.93
2019-03-10T01:34:58.752Z,0.78
2019-03-10T01:40:02.296Z,0.80
2019-03-10T01:45:08.562Z,0.80
2019-03-10T01:50:13.910Z,0.75
2019-03-10T01:55:17.448Z,0.80
2019-03-10T02:00:21.018Z,0.82
2019-03-10T02:05:24.607Z,1.00
2019-03-10T02:10:28.149Z,0.80
2019-03-10T02:15:31.717Z,0.67
2019-03-10T02:20:35.279Z,0.68
2019-03-10T02:25:38.843Z,0.82
2019-03-10T02:30:42.393Z,0.80
2019-03-10T02:35:45.954Z,0.78
2019-03-10T02:40:49.484Z,0.70
2019-03-10T02:45:53.009Z,1.05
2019-03-10T02:50:56.540Z,0.90
2019-03-10T02:56:00.102Z,0.80
2019-03-10T03:01:03.644Z,0.82
2019-03-10T03:06:07.219Z,0.85
2019-03-10T03:11:10.766Z,0.80
2019-03-10T03:16:14.304Z,0.75
2019-03-10T03:21:17.864Z,0.87
2019-03-10T03:26:21.405Z,1.00
2019-03-10T03:31:24.943Z,0.88
2019-03-10T03:36:33.704Z,0.60
2019-03-10T03:41:37.218Z,0.62
2019-03-10T03:46:40.752Z,0.63
2019-03-10T03:51:44.308Z,0.80
2019-03-10T03:56:47.845Z,0.80
2019-03-10T04:02:04.783Z,1.00
2019-03-10T04:07:08.328Z,1.00
2019-03-10T04:12:11.892Z,1.00
2019-03-10T04:17:15.458Z,0.75
2019-03-10T04:22:18.974Z,0.90
2019-03-10T04:27:22.511Z,0.90
2019-03-10T04:32:26.081Z,1.10
2019-03-10T04:37:29.620Z,0.85
2019-03-10T04:42:33.164Z,0.90
2019-03-10T04:47:36.695Z,0.80
2019-03-10T04:52:40.266Z,0.75
2019-03-10T04:57:57.566Z,0.90
2019-03-10T05:03:01.137Z,0.70
2019-03-10T05:08:05.119Z,0.60
2019-03-10T05:13:08.698Z,1.00
2019-03-10T05:18:12.231Z,1.50
2019-03-10T05:23:29.797Z,1.07
2019-03-10T05:28:35.285Z,0.82
2019-03-10T05:33:38.855Z,0.90
2019-03-10T05:38:42.418Z,1.20
2019-03-10T05:43:45.990Z,0.75
2019-03-10T05:48:49.537Z,1.10
2019-03-10T05:53:53.088Z,0.85
2019-03-10T05:58:56.619Z,1.40
2019-03-10T06:04:00.177Z,0.80
2019-03-10T06:09:04.830Z,1.00
2019-03-10T06:14:08.375Z,0.95
2019-03-10T06:19:11.913Z,1.05
2019-03-10T06:24:15.476Z,0.88
2019-03-10T06:29:19.348Z,1.07
2019-03-10T06:34:22.908Z,0.80
2019-03-10T06:39:26.438Z,1.00
2019-03-10T06:44:29.997Z,0.80
2019-03-10T06:49:33.556Z,1.10
2019-03-10T06:54:37.099Z,0.82
2019-03-10T06:59:40.692Z,0.90
2019-03-10T07:04:44.216Z,1.20
2019-03-10T07:09:47.777Z,1.20
2019-03-10T07:14:51.346Z,0.90
2019-03-10T07:19:54.911Z,1.30
2019-03-10T07:24:58.431Z,1.20
2019-03-10T07:30:03.534Z,1.07
2019-03-10T07:35:11.452Z,1.00
2019-03-10T07:40:25.461Z,1.00
2019-03-10T07:45:39.285Z,1.10
2019-03-10T07:50:53.178Z,1.07
2019-03-10T07:55:58.266Z,1.10
2019-03-10T08:01:18.498Z,1.20
2019-03-10T08:06:35.881Z,0.87
2019-03-10T08:11:40.994Z,0.98
2019-03-10T08:16:46.131Z,1.00
2019-03-10T08:22:15.967Z,0.90
2019-03-10T08:27:24.152Z,0.98
2019-03-10T08:37:55.768Z,1.12
2019-03-10T08:43:16.362Z,0.98
2019-03-10T08:48:21.466Z,0.80
2019-03-10T08:53:26.699Z,1.17
2019-03-10T08:58:37.966Z,1.52
2019-03-10T09:03:55.027Z,1.40
2019-03-10T09:09:16.366Z,1.00
2019-03-10T09:14:21.467Z,1.20
2019-03-10T09:19:32.379Z,2.12
2019-03-10T09:24:37.493Z,1.65
2019-03-10T09:29:42.833Z,1.60
2019-03-10T09:34:51.052Z,1.67
2019-03-10T09:40:08.055Z,2.03
2019-03-10T09:45:22.160Z,2.90
2019-03-10T09:50:33.335Z,1.30
2019-03-10T09:55:44.452Z,1.30
2019-03-10T10:00:52.334Z,1.70
2019-03-10T10:06:00.165Z,1.80
2019-03-10T10:11:05.289Z,1.67
2019-03-10T10:16:26.667Z,1.77
2019-03-10T10:21:37.476Z,1.57
2019-03-10T10:26:51.635Z,1.50
2019-03-10T10:32:05.250Z,1.70
2019-03-10T10:37:22.296Z,2.00
2019-03-10T10:42:30.078Z,1.27
2019-03-10T10:47:43.898Z,1.47
2019-03-10T10:52:49.016Z,1.50
2019-03-10T10:58:00.055Z,2.08
2019-03-10T11:03:21.248Z,2.00
2019-03-10T11:08:26.361Z,2.12
2019-03-10T11:13:31.547Z,1.75
2019-03-10T11:18:45.749Z,1.60
2019-03-10T11:23:50.891Z,1.70
2019-03-10T11:29:03.920Z,1.90
2019-03-10T11:34:17.581Z,1.92
2019-03-10T11:39:31.518Z,1.85
2019-03-10T11:44:39.345Z,3.50
2019-03-10T11:49:50.456Z,3.92
2019-03-10T11:54:58.619Z,3.58
2019-03-10T12:00:03.753Z,3.20
2019-03-10T12:05:17.456Z,3.40
2019-03-10T12:10:21.667Z,3.20
2019-03-10T12:15:25.344Z,2.50
2019-03-10T12:20:29.029Z,3.00
2019-03-10T12:25:32.571Z,2.75
2019-03-10T12:30:36.104Z,2.50
2019-03-10T12:35:39.690Z,2.80
2019-03-10T12:40:43.241Z,2.40
2019-03-10T12:45:46.783Z,2.47
2019-03-10T12:50:50.350Z,2.47
2019-03-10T12:55:53.944Z,2.30
2019-03-10T13:01:05.703Z,2.45
2019-03-10T13:06:02.805Z,2.62
2019-03-10T13:11:06.412Z,2.62
2019-03-10T13:16:12.265Z,2.80
2019-03-10T13:21:15.286Z,3.20
2019-03-10T13:26:18.830Z,2.70
2019-03-10T13:31:22.421Z,2.67
2019-03-10T13:36:25.941Z,3.00
2019-03-10T13:41:29.594Z,2.77
2019-03-10T13:46:33.120Z,2.70
2019-03-10T13:51:36.731Z,2.90
2019-03-10T13:56:40.349Z,2.72
2019-03-10T14:01:43.897Z,2.92
2019-03-10T14:06:47.470Z,2.62
2019-03-10T14:11:51.012Z,2.70
2019-03-10T14:16:54.962Z,2.62
2019-03-10T14:21:58.508Z,2.50
2019-03-10T14:27:02.071Z,2.67
2019-03-10T14:32:05.606Z,2.42
2019-03-10T14:37:09.153Z,2.76
2019-03-10T14:42:12.727Z,2.37
2019-03-10T14:47:16.293Z,2.50
2019-03-10T14:52:23.025Z,2.90
2019-03-10T14:57:26.560Z,3.55
2019-03-10T15:02:30.123Z,2.73
2019-03-10T15:07:33.683Z,4.35
2019-03-10T15:12:37.218Z,5.42
2019-03-10T15:17:40.760Z,4.87
2019-03-10T15:22:44.321Z,4.72
2019-03-10T15:27:47.904Z,5.10
2019-03-10T15:32:51.946Z,5.33
2019-03-10T15:37:55.517Z,6.75
2019-03-10T15:42:59.059Z,3.73
2019-03-10T15:48:02.637Z,5.08
2019-03-10T15:53:06.253Z,4.40
2019-03-10T15:58:09.839Z,4.80
2019-03-10T16:03:13.372Z,3.62
2019-03-10T16:08:16.965Z,3.77
2019-03-10T16:13:20.494Z,5.47
2019-03-10T16:18:24.108Z,5.17
2019-03-10T16:23:27.652Z,4.50
2019-03-10T16:28:31.237Z,4.22
2019-03-10T16:33:34.750Z,3.67
2019-03-10T16:38:38.304Z,4.62
2019-03-10T16:43:41.833Z,6.17
2019-03-10T16:48:45.655Z,4.70
2019-03-10T16:53:49.183Z,4.90
2019-03-10T16:58:52.718Z,4.40
2019-03-10T17:03:56.397Z,4.33
2019-03-10T17:08:59.938Z,4.47
2019-03-10T17:14:03.884Z,4.30
2019-03-10T17:19:09.536Z,4.45
2019-03-10T17:24:13.139Z,4.43
2019-03-10T17:29:16.995Z,4.12
2019-03-10T17:34:20.665Z,4.87
2019-03-10T17:39:24.516Z,4.65
2019-03-10T17:44:28.037Z,4.40
2019-03-10T17:49:31.570Z,4.53
2019-03-10T17:54:35.179Z,4.80
2019-03-10T17:59:38.690Z,4.62
2019-03-10T18:04:42.346Z,4.08
2019-03-10T18:09:45.867Z,4.00
2019-03-10T18:14:49.401Z,4.40
2019-03-10T18:19:52.961Z,3.90
2019-03-10T18:24:56.540Z,4.12
2019-03-10T18:30:00.175Z,4.33
2019-03-10T18:35:06.757Z,4.20
2019-03-10T18:40:24.489Z,4.05
2019-03-10T18:45:28.025Z,4.13
2019-03-10T18:50:31.618Z,4.40
2019-03-10T18:55:35.161Z,4.20
2019-03-10T19:00:39.083Z,4.08
2019-03-10T19:05:42.753Z,3.72
2019-03-10T19:10:46.315Z,3.92
2019-03-10T19:15:49.847Z,3.62
2019-03-10T19:20:53.882Z,3.90
2019-03-10T19:25:57.411Z,3.67
2019-03-10T19:31:01.105Z,3.58
2019-03-10T19:36:05.150Z,3.77
2019-03-10T19:41:09.010Z,3.77
2019-03-10T19:46:12.580Z,3.27
2019-03-10T19:51:16.155Z,3.43
2019-03-10T19:56:19.689Z,3.37
2019-03-10T20:01:23.239Z,3.15
2019-03-10T20:06:26.799Z,3.17
2019-03-10T20:11:30.359Z,3.50
2019-03-10T20:16:33.946Z,2.70
2019-03-10T20:21:37.719Z,2.90
2019-03-10T20:26:41.285Z,2.58
2019-03-10T20:31:44.853Z,2.98
2019-03-10T20:36:48.404Z,2.80
2019-03-10T20:41:51.973Z,2.37
2019-03-10T20:46:55.633Z,3.20
2019-03-10T20:51:59.214Z,3.00
2019-03-10T20:57:02.734Z,2.95
2019-03-10T21:02:06.300Z,2.80
2019-03-10T21:07:10.333Z,2.50
2019-03-10T21:12:13.991Z,2.87
2019-03-10T21:17:17.553Z,2.80
2019-03-10T21:22:21.239Z,2.83
2019-03-10T21:27:24.794Z,2.35
2019-03-10T21:32:28.338Z,2.10
2019-03-10T21:37:31.905Z,2.17
2019-03-10T21:42:35.511Z,2.50
2019-03-10T21:47:39.037Z,2.03
2019-03-10T21:52:42.647Z,2.10
2019-03-10T21:57:46.330Z,2.25
2019-03-10T22:02:49.904Z,2.17
2019-03-10T22:07:53.457Z,2.20
2019-03-10T22:12:56.973Z,2.25
2019-03-10T22:18:00.518Z,2.15
2019-03-10T22:23:04.830Z,1.52
2019-03-10T22:28:08.399Z,1.95
2019-03-10T22:33:11.918Z,1.85
2019-03-10T22:38:15.548Z,1.50
2019-03-10T22:43:19.179Z,1.92
2019-03-10T22:48:22.702Z,1.57
2019-03-10T22:53:26.272Z,1.37
2019-03-10T22:58:29.825Z,1.80
2019-03-10T23:03:33.357Z,1.80
2019-03-10T23:08:36.897Z,1.40
2019-03-10T23:13:40.564Z,1.15
2019-03-10T23:18:44.110Z,1.30
2019-03-10T23:23:47.666Z,1.25
2019-03-10T23:28:51.272Z,1.60
2019-03-10T23:33:54.796Z,1.27
2019-03-10T23:38:58.393Z,1.12
2019-03-10T23:44:01.936Z,1.05
2019-03-10T23:49:05.497Z,1.20
2019-03-10T23:54:09.050Z,1.20
2019-03-10T23:59:12.607Z,1.30
